createdAt,value
2019-04-10T07:28:19.433Z,72.55
2019-04-10T07:29:20.984Z,72.34
2019-04-10T07:30:19.497Z,71.41
2019-04-10T07:31:19.333Z,71.21
2019-04-10T07:32:19.347Z,71.11
2019-04-10T07:33:19.625Z,70.39
2019-04-10T07:34:22.043Z,70.25
2019-04-10T07:35:21.479Z,69.32
2019-04-10T07:36:18.262Z,70.04
2019-04-10T07:37:21.607Z,70.15
2019-04-10T07:38:21.230Z,70.66
2019-04-10T07:39:18.392Z,69.94
2019-04-10T07:40:18.598Z,69.74
2019-04-10T07:41:21.329Z,69.74
2019-04-10T07:42:26.751Z,69.74
2019-04-10T07:43:25.489Z,68.57
2019-04-10T07:44:19.034Z,69.70
2019-04-10T07:45:17.993Z,70.01
2019-04-10T07:46:17.989Z,69.09
2019-04-10T07:47:17.984Z,69.50
2019-04-10T07:48:18.444Z,68.78
2019-04-10T07:49:19.445Z,68.27
2019-04-10T07:50:18.379Z,68.96
2019-04-10T07:51:18.996Z,68.06
2019-04-10T07:52:20.836Z,68.03
2019-04-10T07:53:18.874Z,67.11
2019-04-10T07:54:20.924Z,68.03
2019-04-10T07:55:18.992Z,67.11
2019-04-10T07:56:20.699Z,67.08
2019-04-10T07:57:17.856Z,67.21
2019-04-10T07:58:17.845Z,67.38
2019-04-10T07:59:18.487Z,67.08
2019-04-10T08:00:18.145Z,66.67
2019-04-10T08:01:18.286Z,67.52
2019-04-10T08:02:17.803Z,65.98
2019-04-10T08:03:18.861Z,66.67
2019-04-10T08:04:18.250Z,66.97
2019-04-10T08:05:18.860Z,67.18
2019-04-10T08:06:17.947Z,67.08
2019-04-10T08:07:27.642Z,66.67
2019-04-10T08:08:19.337Z,66.67
2019-04-10T08:09:18.785Z,66.25
2019-04-10T08:10:17.967Z,66.25
2019-04-10T08:11:17.704Z,64.51
2019-04-10T08:12:17.698Z,64.31
2019-04-10T08:13:17.678Z,64.07
2019-04-10T08:14:17.693Z,64.69
2019-04-10T08:15:18.698Z,65.20
2019-04-10T08:16:17.642Z,65.81
2019-04-10T08:17:17.633Z,65.92
2019-04-10T08:18:17.620Z,63.66
2019-04-10T08:19:18.496Z,63.56
2019-04-10T08:20:17.735Z,64.69
2019-04-10T08:21:17.791Z,63.87
2019-04-10T08:22:17.953Z,63.56
2019-04-10T08:23:17.644Z,63.12
2019-04-10T08:24:18.167Z,63.73
2019-04-10T08:25:18.452Z,64.35
2019-04-10T08:26:18.330Z,64.04
2019-04-10T08:27:17.517Z,64.56
2019-04-10T08:28:17.865Z,64.65
2019-04-10T08:29:18.219Z,63.73
2019-04-10T08:30:17.543Z,62.81
2019-04-10T08:31:17.473Z,62.10
2019-04-10T08:32:18.111Z,61.89
2019-04-10T08:33:17.566Z,62.19
2019-04-10T08:34:17.438Z,63.94
2019-04-10T08:35:17.510Z,63.81
2019-04-10T08:36:17.416Z,63.73
2019-04-10T08:37:18.744Z,64.32
2019-04-10T08:38:17.397Z,61.76
2019-04-10T08:39:31.769Z,61.04
2019-04-10T08:40:19.093Z,60.02
2019-04-10T08:41:17.361Z,60.74
2019-04-10T08:42:17.360Z,60.84
2019-04-10T08:43:17.338Z,62.07
2019-04-10T08:44:17.724Z,62.37
2019-04-10T08:45:17.342Z,61.55
2019-04-10T08:46:17.734Z,60.53
2019-04-10T08:47:17.362Z,60.71
2019-04-10T08:48:17.674Z,61.83
2019-04-10T08:49:18.317Z,60.94
2019-04-10T08:50:17.440Z,61.01
2019-04-10T08:51:17.246Z,60.19
2019-04-10T08:52:17.237Z,60.99
2019-04-10T08:53:18.062Z,62.01
2019-04-10T08:54:18.325Z,61.19
2019-04-10T08:55:17.765Z,61.70
2019-04-10T08:56:18.352Z,59.76
2019-04-10T08:57:17.254Z,58.73
2019-04-10T08:58:17.169Z,58.53
2019-04-10T08:59:17.157Z,59.14
2019-04-10T09:00:17.176Z,59.45
2019-04-10T09:01:17.444Z,57.51
2019-04-10T09:02:18.008Z,59.14
2019-04-10T09:03:17.114Z,58.97
2019-04-10T09:04:17.856Z,58.53
2019-04-10T09:05:17.511Z,58.12
2019-04-10T09:06:17.507Z,60.06
2019-04-10T09:07:17.068Z,59.45
2019-04-10T09:08:17.099Z,59.45
2019-04-10T09:09:17.341Z,59.53
2019-04-10T09:10:17.040Z,59.32
2019-04-10T09:11:25.472Z,59.53
2019-04-10T09:12:18.009Z,59.30
2019-04-10T09:13:17.014Z,59.70
2019-04-10T09:14:17.111Z,58.17
2019-04-10T09:15:18.056Z,58.48
2019-04-10T09:16:16.987Z,57.93
2019-04-10T09:17:17.405Z,56.20
2019-04-10T09:18:16.945Z,58.32
2019-04-10T09:19:18.900Z,57.09
2019-04-10T09:20:16.921Z,57.70
2019-04-10T09:21:17.465Z,57.09
2019-04-10T09:22:16.897Z,56.27
2019-04-10T09:23:35.118Z,55.84
2019-04-10T09:24:17.874Z,55.63
2019-04-10T09:25:17.828Z,56.66
2019-04-10T09:26:17.042Z,56.15
2019-04-10T09:27:17.177Z,56.15
2019-04-10T09:28:18.079Z,55.63
2019-04-10T09:29:16.817Z,55.61
2019-04-10T09:30:16.807Z,56.02
2019-04-10T09:31:17.726Z,55.82
2019-04-10T09:32:18.010Z,55.51
2019-04-10T09:33:23.009Z,55.48
2019-04-10T09:34:18.003Z,54.59
2019-04-10T09:35:16.748Z,54.05
2019-04-10T09:36:18.134Z,54.39
2019-04-10T09:37:17.784Z,54.59
2019-04-10T09:38:16.862Z,53.47
2019-04-10T09:39:17.172Z,54.18
2019-04-10T09:40:16.692Z,54.39
2019-04-10T09:41:17.483Z,54.90
2019-04-10T09:42:17.173Z,54.28
2019-04-10T09:43:17.697Z,55.07
2019-04-10T09:44:16.652Z,54.36
2019-04-10T09:45:17.788Z,54.13
2019-04-10T09:46:16.674Z,53.72
2019-04-10T09:47:16.613Z,53.72
2019-04-10T09:48:16.630Z,54.03
2019-04-10T09:49:16.692Z,54.00
2019-04-10T09:50:17.254Z,54.11
2019-04-10T09:51:18.450Z,53.67
2019-04-10T09:52:16.702Z,51.03
2019-04-10T09:53:17.050Z,52.27
2019-04-10T09:54:17.488Z,53.59
2019-04-10T09:55:16.536Z,51.94
2019-04-10T09:56:17.272Z,52.25
2019-04-10T09:57:17.551Z,51.74
2019-04-10T09:58:17.575Z,52.25
2019-04-10T09:59:16.478Z,52.94
2019-04-10T10:00:16.476Z,52.33
2019-04-10T10:01:16.481Z,53.24
2019-04-10T10:02:17.603Z,51.31
2019-04-10T10:03:17.361Z,51.51
2019-04-10T10:04:17.352Z,51.23
2019-04-10T10:05:16.449Z,51.13
2019-04-10T10:06:25.334Z,51.41
2019-04-10T10:07:18.416Z,51.61
2019-04-10T10:08:16.380Z,52.55
2019-04-10T10:09:17.538Z,52.94
2019-04-10T10:10:17.193Z,52.22
2019-04-10T10:11:16.343Z,51.81
2019-04-10T10:12:16.363Z,52.33
2019-04-10T10:13:17.262Z,51.51
2019-04-10T10:14:16.766Z,50.39
2019-04-10T10:15:16.866Z,50.52
2019-04-10T10:16:17.002Z,51.74
2019-04-10T10:17:16.875Z,51.33
2019-04-10T10:18:17.235Z,51.03
2019-04-10T10:19:16.251Z,50.42
2019-04-10T10:20:16.539Z,51.53
2019-04-10T10:21:16.635Z,52.55
2019-04-10T10:22:16.820Z,51.43
2019-04-10T10:23:16.214Z,50.82
2019-04-10T10:24:16.341Z,51.84
2019-04-10T10:25:17.287Z,51.43
2019-04-10T10:26:16.171Z,51.20
2019-04-10T10:27:16.185Z,51.53
2019-04-10T10:28:16.154Z,49.37
2019-04-10T10:29:16.138Z,50.49
2019-04-10T10:30:16.149Z,51.51
2019-04-10T10:31:16.132Z,50.39
2019-04-10T10:32:17.068Z,50.59
2019-04-10T10:33:17.328Z,50.09
2019-04-10T10:34:16.391Z,50.09
2019-04-10T10:35:16.774Z,50.29
2019-04-10T10:36:16.061Z,50.70
2019-04-10T10:37:16.641Z,50.06
2019-04-10T10:38:16.036Z,51.77
2019-04-10T10:39:17.180Z,51.36
2019-04-10T10:40:17.170Z,49.12
2019-04-10T10:41:16.004Z,48.69
2019-04-10T10:42:16.014Z,48.80
2019-04-10T10:43:16.226Z,48.80
2019-04-10T10:44:17.231Z,48.97
2019-04-10T10:45:15.965Z,47.75
2019-04-10T10:46:15.952Z,47.35
2019-04-10T10:47:16.009Z,48.02
2019-04-10T10:48:15.926Z,49.03
2019-04-10T10:49:15.989Z,47.41
2019-04-10T10:50:15.899Z,47.61
2019-04-10T10:51:15.896Z,46.19
2019-04-10T10:52:15.903Z,44.46
2019-04-10T10:53:16.408Z,45.68
2019-04-10T10:54:16.782Z,45.78
2019-04-10T10:55:15.845Z,44.56
2019-04-10T10:56:15.842Z,45.37
2019-04-10T10:57:15.828Z,46.90
2019-04-10T10:58:15.833Z,47.10
2019-04-10T10:59:15.807Z,45.48
2019-04-10T11:00:16.876Z,45.37
2019-04-10T11:01:15.872Z,45.58
2019-04-10T11:02:15.765Z,46.39
2019-04-10T11:06:24.763Z,46.01
2019-04-10T11:07:24.556Z,46.21
2019-04-10T11:08:24.246Z,47.33
2019-04-10T11:09:23.998Z,46.82
2019-04-10T11:10:27.090Z,47.33
2019-04-10T11:11:24.103Z,48.04
2019-04-10T11:12:24.189Z,46.72
2019-04-10T11:13:24.226Z,47.33
2019-04-10T11:14:23.746Z,45.80
2019-04-10T11:15:23.919Z,47.02
2019-04-10T11:16:24.769Z,47.74
2019-04-10T11:17:23.610Z,47.33
2019-04-10T11:18:24.784Z,46.21
2019-04-10T11:19:23.601Z,46.44
2019-04-10T11:20:24.131Z,46.23
2019-04-10T11:21:24.685Z,46.23
2019-04-10T11:22:25.654Z,46.64
2019-04-10T11:23:24.541Z,47.25
2019-04-10T11:24:25.169Z,46.92
2019-04-10T11:25:23.744Z,46.82
2019-04-10T11:26:24.244Z,45.70
2019-04-10T11:27:23.505Z,45.80
2019-04-10T11:28:28.654Z,45.98
2019-04-10T11:29:24.474Z,43.55
2019-04-10T11:30:24.886Z,45.48
2019-04-10T11:31:24.130Z,44.56
2019-04-10T11:32:23.993Z,45.56
2019-04-10T11:33:24.992Z,44.46
2019-04-10T11:34:24.296Z,41.42
2019-04-10T11:35:24.265Z,43.14
2019-04-10T11:36:23.645Z,43.24
2019-04-10T11:37:34.418Z,43.04
2019-04-10T11:38:25.893Z,44.99
2019-04-10T11:39:28.243Z,45.50
2019-04-10T11:40:26.732Z,44.48
2019-04-10T11:41:24.048Z,46.13
2019-04-10T11:42:23.331Z,45.93
2019-04-10T11:43:24.854Z,47.05
2019-04-10T11:44:24.785Z,42.98
2019-04-10T11:45:25.500Z,43.49
2019-04-10T11:46:28.257Z,44.83
2019-04-10T11:47:26.355Z,44.51
2019-04-10T11:48:25.306Z,43.38
2019-04-10T11:49:23.834Z,45.32
2019-04-10T11:50:25.381Z,46.74
2019-04-10T11:51:24.070Z,46.74
2019-04-10T11:52:32.778Z,46.23
2019-04-10T11:53:26.442Z,44.48
2019-04-10T11:54:26.443Z,44.68
2019-04-10T11:55:26.141Z,44.59
2019-04-10T11:56:23.641Z,44.89
2019-04-10T11:57:23.154Z,45.80
2019-04-10T11:58:25.208Z,46.09
2019-04-10T11:59:24.399Z,47.00
2019-04-10T12:00:26.767Z,44.26
2019-04-10T12:01:25.439Z,43.65
2019-04-10T12:02:24.977Z,43.47
2019-04-10T12:03:24.618Z,45.48
2019-04-10T12:04:23.368Z,47.20
2019-04-10T12:05:25.460Z,47.33
2019-04-10T12:06:25.250Z,47.13
2019-04-10T12:07:57.425Z,46.21
2019-04-10T12:08:45.281Z,46.82
2019-04-10T12:11:24.719Z,45.89
2019-04-10T12:12:23.798Z,45.68
2019-04-10T12:13:24.064Z,45.58
2019-04-10T12:14:23.738Z,47.20
2019-04-10T12:15:23.929Z,44.87
2019-04-10T12:16:23.136Z,46.06
2019-04-10T12:17:22.929Z,47.08
2019-04-10T12:18:22.924Z,47.06
2019-04-10T12:19:25.020Z,46.04
2019-04-10T12:20:22.970Z,46.06
2019-04-10T12:21:23.977Z,45.23
2019-04-10T12:22:23.313Z,43.02
2019-04-10T12:23:23.159Z,42.92
2019-04-10T12:24:23.797Z,42.72
2019-04-10T12:25:22.942Z,42.94
2019-04-10T12:26:23.468Z,43.65
2019-04-10T12:27:23.088Z,43.47
2019-04-10T12:28:22.802Z,43.57
2019-04-10T12:29:22.791Z,43.37
2019-04-10T12:30:23.520Z,44.38
2019-04-10T12:31:23.815Z,44.99
2019-04-10T12:32:23.027Z,43.44
2019-04-10T12:33:22.758Z,43.55
2019-04-10T12:34:22.732Z,42.41
2019-04-10T12:35:22.748Z,42.72
2019-04-10T12:36:22.712Z,42.80
2019-04-10T12:37:23.585Z,43.69
2019-04-10T12:38:23.446Z,42.57
2019-04-10T12:39:22.766Z,42.88
2019-04-10T12:40:22.700Z,42.88
2019-04-10T12:41:23.500Z,43.47
2019-04-10T12:42:22.652Z,44.38
2019-04-10T12:43:23.185Z,42.54
2019-04-10T12:44:23.360Z,42.23
2019-04-10T12:45:22.634Z,41.02
2019-04-10T12:46:22.601Z,42.31
2019-04-10T12:47:22.591Z,42.52
2019-04-10T12:48:23.033Z,43.02
2019-04-10T12:49:23.430Z,43.35
2019-04-10T12:50:22.649Z,41.91
2019-04-10T12:51:22.549Z,40.39
2019-04-10T12:52:22.796Z,40.80
2019-04-10T12:53:23.330Z,41.63
2019-04-10T12:54:23.685Z,40.61
2019-04-10T12:55:22.532Z,41.02
2019-04-10T12:56:22.485Z,42.23
2019-04-10T12:57:23.126Z,43.35
2019-04-10T12:58:22.534Z,44.26
2019-04-10T12:59:23.522Z,44.84
2019-04-10T13:00:23.577Z,43.43
2019-04-10T13:01:22.737Z,44.34
2019-04-10T13:02:22.625Z,42.72
2019-04-10T13:03:23.066Z,41.99
2019-04-10T13:04:22.397Z,40.47
2019-04-10T13:05:22.406Z,41.99
2019-04-10T13:06:22.380Z,42.49
2019-04-10T13:07:23.341Z,43.30
2019-04-10T13:08:28.803Z,43.61
2019-04-10T13:09:24.226Z,41.08
2019-04-10T13:10:23.169Z,39.58
2019-04-10T13:11:22.547Z,39.37
2019-04-10T13:12:22.998Z,40.57
2019-04-10T13:13:22.301Z,40.27
2019-04-10T13:14:22.287Z,40.45
2019-04-10T13:15:23.326Z,41.06
2019-04-10T13:16:22.284Z,40.84
2019-04-10T13:17:22.722Z,42.07
2019-04-10T13:18:22.554Z,42.86
2019-04-10T13:19:22.238Z,42.66
2019-04-10T13:20:22.215Z,42.07
2019-04-10T13:21:22.240Z,42.07
2019-04-10T13:22:22.290Z,38.85
2019-04-10T13:23:22.503Z,41.00
2019-04-10T13:24:22.166Z,40.29
2019-04-10T13:25:22.157Z,40.49
2019-04-10T13:26:22.177Z,42.01
2019-04-10T13:27:23.079Z,42.52
2019-04-10T13:28:22.127Z,43.12
2019-04-10T13:29:22.562Z,41.72
2019-04-10T13:30:22.113Z,42.31
2019-04-10T13:31:22.093Z,40.80
2019-04-10T13:32:22.106Z,41.22
2019-04-10T13:33:22.608Z,42.54
2019-04-10T13:34:22.071Z,42.21
2019-04-10T13:35:22.058Z,42.72
2019-04-10T13:36:22.038Z,42.54
2019-04-10T13:37:22.123Z,42.82
2019-04-10T13:38:28.623Z,42.21
2019-04-10T13:39:22.998Z,43.02
2019-04-10T13:40:22.016Z,41.71
2019-04-10T13:41:21.981Z,40.19
2019-04-10T13:42:23.132Z,40.51
2019-04-10T13:43:22.183Z,41.22
2019-04-10T13:44:22.397Z,41.42
2019-04-10T13:45:21.931Z,41.24
2019-04-10T13:46:21.917Z,42.96
2019-04-10T13:47:21.938Z,43.16
2019-04-10T13:48:22.876Z,42.76
2019-04-10T13:49:22.024Z,43.16
2019-04-10T13:50:22.226Z,41.64
2019-04-10T13:51:21.862Z,42.46
2019-04-10T13:52:21.879Z,43.47
2019-04-10T13:53:21.846Z,43.47
2019-04-10T13:54:22.805Z,42.35
2019-04-10T13:55:21.818Z,41.64
2019-04-10T13:56:21.808Z,41.85
2019-04-10T13:57:22.261Z,42.35
2019-04-10T13:58:21.803Z,42.46
2019-04-10T13:59:22.636Z,41.54
2019-04-10T14:00:21.760Z,42.66
2019-04-10T14:01:21.754Z,42.66
2019-04-10T14:02:21.741Z,42.76
2019-04-10T14:03:22.648Z,43.26
2019-04-10T14:04:21.714Z,42.84
2019-04-10T14:05:21.966Z,40.91
2019-04-10T14:06:21.717Z,40.51
2019-04-10T14:07:22.094Z,41.32
2019-04-10T14:08:35.981Z,42.13
2019-04-10T14:09:34.950Z,42.03
2019-04-10T14:10:22.919Z,41.02
2019-04-10T14:11:21.637Z,40.69
2019-04-10T14:12:22.817Z,40.89
2019-04-10T14:13:21.986Z,40.09
2019-04-10T14:14:21.604Z,40.39
2019-04-10T14:15:22.312Z,40.80
2019-04-10T14:16:22.408Z,40.89
2019-04-10T14:17:21.605Z,40.59
2019-04-10T14:18:22.046Z,39.88
2019-04-10T14:19:21.547Z,42.11
2019-04-10T14:20:21.769Z,41.60
2019-04-10T14:21:21.749Z,42.19
2019-04-10T14:22:21.854Z,42.60
2019-04-10T14:23:22.241Z,43.61
2019-04-10T14:24:21.999Z,42.69
2019-04-10T14:25:21.481Z,40.88
2019-04-10T14:26:22.479Z,40.98
2019-04-10T14:27:22.767Z,40.88
2019-04-10T14:28:22.215Z,41.28
2019-04-10T14:29:22.544Z,41.38
2019-04-10T14:30:21.454Z,40.67
2019-04-10T14:31:21.411Z,40.15
2019-04-10T14:32:21.401Z,39.84
2019-04-10T14:33:21.412Z,39.95
2019-04-10T14:34:21.385Z,40.73
2019-04-10T14:35:21.382Z,39.42
2019-04-10T14:36:22.371Z,40.13
2019-04-10T14:37:21.341Z,39.93
2019-04-10T14:38:21.354Z,37.40
2019-04-10T14:39:22.787Z,38.61
2019-04-10T14:40:22.131Z,39.02
2019-04-10T14:41:22.094Z,39.93
2019-04-10T14:42:22.305Z,36.90
2019-04-10T14:43:21.304Z,37.60
2019-04-10T14:44:21.270Z,37.81
2019-04-10T14:45:21.496Z,38.92
2019-04-10T14:46:21.241Z,38.61
2019-04-10T14:47:21.275Z,37.60
2019-04-10T14:48:22.320Z,37.70
2019-04-10T14:49:21.208Z,36.39
2019-04-10T14:50:21.935Z,34.48
2019-04-10T14:51:22.001Z,35.48
2019-04-10T14:52:21.171Z,36.41
2019-04-10T14:53:21.184Z,35.58
2019-04-10T14:54:21.747Z,34.88
2019-04-10T14:55:22.004Z,35.48
2019-04-10T14:56:21.990Z,34.88
2019-04-10T14:57:21.134Z,36.07
2019-04-10T14:58:27.512Z,35.26
2019-04-10T14:59:22.141Z,35.36
2019-04-10T15:00:22.349Z,35.36
2019-04-10T15:01:21.963Z,36.68
2019-04-10T15:02:22.182Z,34.45
2019-04-10T15:03:22.487Z,35.66
2019-04-10T15:04:21.353Z,36.68
2019-04-10T15:05:21.677Z,36.57
2019-04-10T15:06:21.996Z,37.08
2019-04-10T15:07:21.862Z,37.79
2019-04-10T15:08:21.773Z,36.98
2019-04-10T15:09:25.593Z,37.66
2019-04-10T15:10:21.982Z,36.96
2019-04-10T15:11:20.961Z,37.06
2019-04-10T15:12:20.954Z,37.87
2019-04-10T15:13:22.702Z,37.66
2019-04-10T15:14:21.631Z,37.57
2019-04-10T15:15:20.912Z,36.35
2019-04-10T15:16:20.956Z,36.98
2019-04-10T15:17:21.089Z,35.66
2019-04-10T15:18:20.895Z,36.07
2019-04-10T15:19:20.890Z,36.57
2019-04-10T15:20:20.965Z,36.77
2019-04-10T15:21:20.909Z,36.98
2019-04-10T15:22:20.831Z,37.46
2019-04-10T15:23:20.823Z,37.97
2019-04-10T15:24:21.650Z,36.35
2019-04-10T15:25:20.805Z,35.55
2019-04-10T15:26:21.821Z,34.94
2019-04-10T15:27:21.572Z,34.13
2019-04-10T15:28:20.763Z,34.33
2019-04-10T15:29:21.338Z,34.13
2019-04-10T15:30:20.761Z,34.52
2019-04-10T15:31:21.542Z,34.81
2019-04-10T15:32:20.730Z,34.49
2019-04-10T15:33:20.706Z,34.49
2019-04-10T15:34:20.760Z,35.08
2019-04-10T15:35:20.686Z,35.06
2019-04-10T15:36:20.688Z,35.28
2019-04-10T15:37:20.772Z,33.15
2019-04-10T15:38:20.652Z,34.07
2019-04-10T15:39:31.411Z,32.76
2019-04-10T15:40:25.598Z,33.56
2019-04-10T15:41:21.619Z,33.87
2019-04-10T15:42:21.720Z,34.27
2019-04-10T15:43:20.938Z,33.26
2019-04-10T15:44:21.771Z,34.49
2019-04-10T15:45:21.592Z,34.69
2019-04-10T15:46:21.302Z,35.70
2019-04-10T15:47:22.999Z,35.30
2019-04-10T15:48:20.930Z,35.31
2019-04-10T15:49:20.530Z,35.61
2019-04-10T15:50:20.601Z,36.72
2019-04-10T15:51:20.520Z,35.93
2019-04-10T15:52:20.507Z,37.04
2019-04-10T15:53:20.506Z,37.77
2019-04-10T15:54:21.506Z,38.78
2019-04-10T15:55:21.595Z,38.48
2019-04-10T15:56:20.493Z,36.86
2019-04-10T15:57:20.650Z,35.14
2019-04-10T15:58:21.503Z,34.66
2019-04-10T15:59:20.418Z,35.46
2019-04-10T16:00:21.218Z,36.79
2019-04-10T16:01:21.576Z,37.62
2019-04-10T16:02:21.616Z,38.33
2019-04-10T16:03:20.379Z,39.15
2019-04-10T16:04:20.363Z,39.06
2019-04-10T16:05:21.556Z,39.86
2019-04-10T16:06:20.976Z,39.06
2019-04-10T16:07:20.379Z,39.17
2019-04-10T16:08:20.481Z,40.39
2019-04-10T16:09:21.061Z,39.28
2019-04-10T16:10:21.048Z,40.29
2019-04-10T16:11:21.496Z,39.80
2019-04-10T16:12:20.709Z,40.41
2019-04-10T16:13:20.256Z,40.31
2019-04-10T16:14:23.301Z,40.61
2019-04-10T16:15:21.528Z,39.62
2019-04-10T16:16:20.248Z,41.14
2019-04-10T16:17:22.308Z,40.43
2019-04-10T16:18:21.093Z,40.04
2019-04-10T16:19:20.490Z,40.34
2019-04-10T16:20:20.222Z,38.42
2019-04-10T16:21:20.402Z,40.34
2019-04-10T16:22:21.288Z,40.56
2019-04-10T16:23:20.167Z,40.47
2019-04-10T16:24:20.658Z,40.87
2019-04-10T16:25:20.123Z,40.67
2019-04-10T16:26:20.146Z,41.40
2019-04-10T16:27:20.212Z,41.58
2019-04-10T16:28:20.735Z,40.99
2019-04-10T16:29:20.338Z,40.99
2019-04-10T16:30:20.065Z,41.40
2019-04-10T16:31:20.101Z,42.51
2019-04-10T16:32:21.014Z,42.31
2019-04-10T16:33:20.032Z,42.41
2019-04-10T16:34:20.018Z,42.92
2019-04-10T16:35:21.055Z,42.82
2019-04-10T16:36:20.036Z,42.92
2019-04-10T16:37:19.985Z,42.63
2019-04-10T16:38:20.534Z,43.04
2019-04-10T16:39:19.963Z,41.72
2019-04-10T16:40:20.706Z,42.13
2019-04-10T16:41:19.979Z,41.13
2019-04-10T16:42:19.927Z,40.62
2019-04-10T16:43:20.190Z,42.68
2019-04-10T16:44:19.908Z,41.54
2019-04-10T16:45:19.894Z,42.07
2019-04-10T16:46:20.513Z,42.57
2019-04-10T16:47:19.873Z,42.35
2019-04-10T16:48:20.924Z,42.47
2019-04-10T16:49:20.326Z,42.98
2019-04-10T16:50:19.839Z,41.44
2019-04-10T16:51:20.504Z,41.15
2019-04-10T16:52:20.855Z,41.13
2019-04-10T16:53:20.118Z,43.37
2019-04-10T16:54:20.468Z,42.57
2019-04-10T16:55:20.677Z,42.55
2019-04-10T16:56:19.795Z,43.26
2019-04-10T16:57:20.685Z,42.66
2019-04-10T16:58:20.070Z,42.14
2019-04-10T16:59:19.754Z,40.64
2019-04-10T17:00:20.684Z,41.46
2019-04-10T17:01:20.505Z,41.46
2019-04-10T17:02:20.071Z,42.07
2019-04-10T17:03:19.815Z,40.66
2019-04-10T17:04:19.873Z,41.47
2019-04-10T17:05:20.638Z,40.46
2019-04-10T17:06:19.932Z,41.27
2019-04-10T17:07:19.654Z,41.78
2019-04-10T17:08:19.741Z,41.78
2019-04-10T17:09:20.655Z,40.46
2019-04-10T17:10:24.085Z,40.99
2019-04-10T17:11:21.012Z,40.66
2019-04-10T17:12:19.955Z,40.48
2019-04-10T17:13:19.581Z,40.68
2019-04-10T17:14:20.865Z,41.39
2019-04-10T17:15:19.811Z,41.09
2019-04-10T17:16:19.834Z,42.21
2019-04-10T17:17:20.163Z,40.30
2019-04-10T17:18:19.531Z,40.58
2019-04-10T17:19:19.523Z,40.39
2019-04-10T17:20:20.337Z,41.92
2019-04-10T17:21:19.933Z,42.74
2019-04-10T17:22:31.178Z,42.33
2019-04-10T17:23:20.635Z,41.82
2019-04-10T17:24:19.470Z,42.53
2019-04-10T17:25:20.180Z,42.63
2019-04-10T17:26:19.430Z,43.04
2019-04-10T17:27:19.517Z,42.65
2019-04-10T17:28:21.995Z,42.96
2019-04-10T17:29:19.397Z,41.53
2019-04-10T17:30:19.958Z,42.55
2019-04-10T17:31:19.378Z,42.04
2019-04-10T17:32:19.425Z,42.14
2019-04-10T17:33:20.571Z,42.65
2019-04-10T17:34:19.343Z,42.14
2019-04-10T17:35:19.457Z,42.65
2019-04-10T17:36:19.338Z,42.86
2019-04-10T17:37:19.333Z,44.00
2019-04-10T17:38:20.483Z,43.38
2019-04-10T17:39:19.668Z,42.25
2019-04-10T17:40:31.205Z,43.08
2019-04-10T17:41:21.573Z,42.57
2019-04-10T17:42:19.919Z,43.49
2019-04-10T17:43:19.241Z,43.69
2019-04-10T17:44:19.229Z,44.61
2019-04-10T17:45:20.490Z,43.79
2019-04-10T17:46:19.437Z,43.59
2019-04-10T17:47:19.221Z,43.30
2019-04-10T17:48:19.894Z,43.91
2019-04-10T17:49:19.370Z,43.32
2019-04-10T17:50:20.230Z,42.49
2019-04-10T17:51:19.768Z,44.75
2019-04-10T17:52:19.176Z,44.14
2019-04-10T17:53:19.124Z,44.34
2019-04-10T17:54:20.026Z,44.65
2019-04-10T17:55:19.715Z,43.73
2019-04-10T17:56:20.128Z,44.45
2019-04-10T17:57:19.108Z,43.63
2019-04-10T17:58:19.236Z,44.57
2019-04-10T17:59:19.058Z,44.67
2019-04-10T18:00:19.047Z,45.18
2019-04-10T18:01:19.036Z,44.98
2019-04-10T18:02:19.061Z,44.98
2019-04-10T18:03:19.088Z,45.89
2019-04-10T18:04:20.059Z,45.69
2019-04-10T18:05:18.989Z,45.79
2019-04-10T18:06:19.366Z,45.08
2019-04-10T18:07:19.670Z,45.39
2019-04-10T18:08:18.987Z,45.20
2019-04-10T18:09:18.959Z,45.92
2019-04-10T18:10:18.934Z,44.69
2019-04-10T18:11:18.940Z,45.72
2019-04-10T18:12:19.596Z,45.73
2019-04-10T18:13:18.922Z,45.84
2019-04-10T18:14:19.443Z,45.12
2019-04-10T18:15:19.837Z,46.66
2019-04-10T18:16:19.920Z,45.63
2019-04-10T18:17:18.854Z,45.94
2019-04-10T18:18:19.840Z,46.45
2019-04-10T18:19:19.165Z,45.94
2019-04-10T18:20:19.880Z,46.37
2019-04-10T18:21:18.807Z,45.86
2019-04-10T18:22:18.796Z,46.57
2019-04-10T18:23:19.642Z,45.94
2019-04-10T18:24:19.943Z,46.37
2019-04-10T18:25:18.812Z,46.26
2019-04-10T18:26:20.662Z,45.86
2019-04-10T18:27:18.781Z,46.06
2019-04-10T18:28:19.228Z,46.49
2019-04-10T18:29:19.087Z,46.37
2019-04-10T18:30:19.544Z,46.08
2019-04-10T18:31:18.802Z,46.90
2019-04-10T18:32:18.683Z,47.29
2019-04-10T18:33:18.716Z,47.11
2019-04-10T18:34:19.377Z,47.00
2019-04-10T18:35:18.649Z,47.52
2019-04-10T18:36:19.542Z,47.61
2019-04-10T18:37:22.004Z,47.61
2019-04-10T18:38:19.552Z,47.82
2019-04-10T18:39:18.616Z,47.72
2019-04-10T18:40:19.083Z,47.61
2019-04-10T18:41:18.585Z,46.00
2019-04-10T18:42:19.423Z,47.23
2019-04-10T18:43:18.560Z,48.48
2019-04-10T18:44:18.573Z,48.66
2019-04-10T18:45:19.604Z,48.15
2019-04-10T18:46:20.799Z,49.09
2019-04-10T18:47:18.672Z,47.44
2019-04-10T18:48:18.705Z,46.03
2019-04-10T18:49:19.012Z,47.66
2019-04-10T18:50:18.478Z,47.56
2019-04-10T18:51:18.476Z,48.07
2019-04-10T18:52:19.166Z,47.45
2019-04-10T18:53:19.303Z,47.56
2019-04-10T18:54:18.655Z,47.25
2019-04-10T18:55:18.423Z,47.99
2019-04-10T18:56:18.819Z,48.19
2019-04-10T18:57:18.406Z,48.40
2019-04-10T18:58:19.248Z,47.58
2019-04-10T18:59:18.515Z,47.17
2019-04-10T19:00:18.781Z,47.78
2019-04-10T19:01:18.899Z,49.01
2019-04-10T19:02:18.343Z,48.50
2019-04-10T19:03:18.333Z,48.81
2019-04-10T19:04:18.345Z,48.60
2019-04-10T19:05:19.299Z,49.32
2019-04-10T19:06:18.424Z,49.11
2019-04-10T19:07:18.303Z,48.71
2019-04-10T19:08:18.349Z,49.42
2019-04-10T19:09:24.416Z,48.60
2019-04-10T19:10:19.894Z,49.52
2019-04-10T19:11:23.108Z,48.63
2019-04-10T19:12:19.230Z,48.83
2019-04-10T19:13:18.226Z,48.63
2019-04-10T19:14:18.464Z,48.93
2019-04-10T19:15:18.209Z,48.83
2019-04-10T19:16:19.559Z,49.75
2019-04-10T19:17:19.005Z,48.83
2019-04-10T19:18:18.166Z,49.96
2019-04-10T19:19:18.465Z,49.44
2019-04-10T19:20:18.166Z,48.44
2019-04-10T19:21:18.136Z,48.55
2019-04-10T19:22:18.133Z,48.85
2019-04-10T19:23:19.349Z,48.55
2019-04-10T19:24:18.096Z,49.06
2019-04-10T19:25:18.794Z,48.85
2019-04-10T19:26:18.991Z,49.88
2019-04-10T19:27:18.153Z,49.98
2019-04-10T19:28:28.010Z,49.57
2019-04-10T19:29:19.242Z,50.29
2019-04-10T19:30:19.091Z,50.09
2019-04-10T19:31:20.018Z,49.98
2019-04-10T19:32:18.359Z,49.90
2019-04-10T19:33:18.353Z,49.59
2019-04-10T19:34:18.007Z,49.49
2019-04-10T19:35:19.882Z,49.80
2019-04-10T19:36:17.961Z,48.88
2019-04-10T19:37:18.564Z,50.01
2019-04-10T19:38:19.006Z,49.80
2019-04-10T19:39:18.221Z,49.82
2019-04-10T19:40:17.941Z,49.72
2019-04-10T19:41:25.226Z,50.02
2019-04-10T19:42:19.460Z,49.82
2019-04-10T19:43:17.878Z,49.93
2019-04-10T19:44:18.987Z,49.31
2019-04-10T19:45:17.904Z,50.13
2019-04-10T19:46:17.872Z,50.05
2019-04-10T19:47:18.015Z,49.41
2019-04-10T19:48:17.825Z,50.36
2019-04-10T19:49:17.813Z,50.44
2019-04-10T19:50:17.857Z,51.77
2019-04-10T19:51:18.393Z,51.77
2019-04-10T19:52:17.779Z,50.56
2019-04-10T19:53:17.768Z,51.48
2019-04-10T19:54:17.864Z,51.90
2019-04-10T19:55:17.772Z,52.28
2019-04-10T19:56:18.172Z,51.48
2019-04-10T19:57:17.725Z,51.28
2019-04-10T19:58:17.737Z,50.87
2019-04-10T19:59:18.763Z,51.59
2019-04-10T20:00:17.686Z,50.79
2019-04-10T20:01:17.704Z,50.97
2019-04-10T20:02:17.682Z,51.18
2019-04-10T20:03:17.654Z,51.31
2019-04-10T20:04:18.750Z,50.59
2019-04-10T20:05:17.635Z,51.10
2019-04-10T20:06:19.874Z,50.99
2019-04-10T20:07:18.576Z,52.12
2019-04-10T20:08:17.646Z,52.33
2019-04-10T20:09:17.585Z,52.54
2019-04-10T20:10:17.577Z,51.20
2019-04-10T20:11:17.588Z,52.54
2019-04-10T20:12:18.194Z,51.31
2019-04-10T20:13:18.610Z,51.72
2019-04-10T20:14:17.532Z,51.92
2019-04-10T20:15:18.413Z,52.02
2019-04-10T20:16:17.531Z,52.02
2019-04-10T20:17:17.744Z,52.56
2019-04-10T20:18:17.483Z,51.84
2019-04-10T20:19:17.492Z,52.23
2019-04-10T20:20:17.467Z,52.46
2019-04-10T20:21:17.620Z,51.84
2019-04-10T20:22:17.437Z,52.46
2019-04-10T20:23:17.452Z,51.84
2019-04-10T20:24:17.416Z,52.89
2019-04-10T20:25:18.470Z,51.95